Time;durP1;ratioP1;P1;durP2;ratioP2;P2;SDS_P1;SDS_P2;PMS_P1;PMS_P2;Temp;Humidity;BMP_temperature;BMP_pressure;BME280_temperature;BME280_humidity;BME280_pressure;Samples;Min_cycle;Max_cycle;Signal;HPM_P1;HPM_P2
2022/06/15 00:00:01;;;;;;;;;;;27.30;39.30;;;;;;697716;28;1224;-88
2022/06/15 00:00:21;;;;;;;;;;;27.30;39.10;;;;;;700235;28;1310;-88
2022/06/15 00:00:43;;;;;;;;;;;27.30;39.30;;;;;;702253;28;1333;-88
2022/06/15 00:01:06;;;;;;;;;;;27.30;39.10;;;;;;699994;28;1200;-89
2022/06/15 00:01:27;;;;;;;;;;;27.30;39.00;;;;;;702581;28;857;-89
2022/06/15 00:01:47;;;;;;;;;;;27.30;39.00;;;;;;702416;28;797;-87
2022/06/15 00:02:08;;;;;;;;;;;27.30;38.90;;;;;;703247;28;992;-87
2022/06/15 00:02:29;;;;;;;;;;;27.30;38.80;;;;;;705350;28;853;-89
2022/06/15 00:02:49;;;;;;;;;;;27.30;39.20;;;;;;704899;28;1336;-86
2022/06/15 00:03:10;;;;;;;;;;;27.30;39.00;;;;;;702306;28;1365;-86
2022/06/15 00:03:32;;;;;;;;;;;27.30;38.90;;;;;;702366;28;1093;-87
2022/06/15 00:03:54;;;;;;;;;;;27.30;40.10;;;;;;701877;28;1906;-85
2022/06/15 00:04:15;;;;;;;;;;;27.30;39.00;;;;;;702313;28;1262;-84
2022/06/15 00:04:35;;;;;;;;;;;27.30;39.00;;;;;;702401;28;934;-89
2022/06/15 00:04:56;;;;;;;;;;;27.30;39.20;;;;;;703058;28;1274;-88
2022/06/15 00:05:17;;;;;;;;;;;27.30;39.50;;;;;;702401;28;1285;-88
2022/06/15 00:05:37;;;;;;;;;;;27.30;39.00;;;;;;699569;28;1341;-87
2022/06/15 00:06:07;;;;;;;;;;;27.30;39.20;;;;;;696902;28;1262;-87
2022/06/15 00:06:29;;;;;;;;;;;27.30;38.90;;;;;;696997;28;739;-88
2022/06/15 00:06:50;;;;;;;;;;;27.30;38.80;;;;;;698543;28;841;-88
2022/06/15 00:07:11;;;;;;;;;;;27.30;39.20;;;;;;698541;28;1301;-88
2022/06/15 00:07:31;;;;;;;;;;;27.30;40.20;;;;;;701428;28;1273;-87
2022/06/15 00:07:52;;;;;;;;;;;27.30;39.00;;;;;;701352;28;1310;-88
2022/06/15 00:08:13;;;;;;;;;;;27.30;39.70;;;;;;699475;28;1414;-88
2022/06/15 00:08:34;;;;;;;;;;;27.30;39.50;;;;;;699733;28;921;-86
2022/06/15 00:08:56;;;;;;;;;;;27.30;39.10;;;;;;699632;28;833;-87
2022/06/15 00:09:17;;;;;;;;;;;27.30;39.10;;;;;;702929;28;1305;-88
2022/06/15 00:09:37;;;;;;;;;;;27.30;40.30;;;;;;702789;28;1214;-89
2022/06/15 00:09:58;;;;;;;;;;;27.30;39.20;;;;;;702934;28;1358;-87
2022/06/15 00:10:19;;;;;;;;;;;27.30;39.80;;;;;;702385;28;1214;-87
2022/06/15 00:10:39;;;;;;;;;;;27.30;39.30;;;;;;702331;28;1225;-88
2022/06/15 00:11:04;;;;;;;;;;;27.30;39.10;;;;;;702126;28;1287;-87
2022/06/15 00:11:32;;;;;;;;;;;27.30;39.10;;;;;;703192;28;1261;-87
2022/06/15 00:11:53;;;;;;;;;;;27.30;39.00;;;;;;702317;28;1267;-88
2022/06/15 00:12:16;;;;;;;;;;;27.30;39.00;;;;;;704212;28;1191;-86
2022/06/15 00:12:37;;;;;;;;;;;27.30;39.00;;;;;;705270;28;857;-87
2022/06/15 00:12:58;;;;;;;;;;;27.30;39.10;;;;;;704788;28;1406;-85
2022/06/15 00:13:19;;;;;;;;;;;27.20;39.10;;;;;;703321;28;1123;-88
2022/06/15 00:13:39;;;;;;;;;;;27.30;39.00;;;;;;701899;28;1162;-86
2022/06/15 00:14:06;;;;;;;;;;;27.30;39.00;;;;;;703199;28;1316;-89
2022/06/15 00:14:28;;;;;;;;;;;27.30;39.20;;;;;;702444;28;1394;-87
2022/06/15 00:14:49;;;;;;;;;;;27.30;39.00;;;;;;702431;28;1227;-88
2022/06/15 00:15:10;;;;;;;;;;;27.20;39.40;;;;;;702418;28;889;-89
2022/06/15 00:15:30;;;;;;;;;;;27.30;39.20;;;;;;699621;28;1300;-88
2022/06/15 00:15:51;;;;;;;;;;;27.30;39.20;;;;;;696820;28;1289;-88
2022/06/15 00:16:11;;;;;;;;;;;27.30;39.40;;;;;;694524;28;1237;-88
2022/06/15 00:16:33;;;;;;;;;;;27.30;39.90;;;;;;694439;28;1215;-88
2022/06/15 00:16:53;;;;;;;;;;;27.30;39.30;;;;;;699468;28;1213;-86
2022/06/15 00:17:14;;;;;;;;;;;27.30;39.80;;;;;;699948;28;1433;-86
2022/06/15 00:17:34;;;;;;;;;;;27.30;39.30;;;;;;702615;28;850;-87
2022/06/15 00:17:55;;;;;;;;;;;27.30;39.30;;;;;;702381;28;1239;-87
2022/06/15 00:18:15;;;;;;;;;;;27.30;38.90;;;;;;699512;28;1119;-86
2022/06/15 00:18:36;;;;;;;;;;;27.30;39.10;;;;;;699592;28;1438;-86
2022/06/15 00:18:57;;;;;;;;;;;27.30;39.10;;;;;;694567;28;1283;-87
2022/06/15 00:19:18;;;;;;;;;;;27.20;39.00;;;;;;694213;28;1252;-87
2022/06/15 00:19:38;;;;;;;;;;;27.30;38.90;;;;;;691836;28;1516;-88
2022/06/15 00:19:59;;;;;;;;;;;27.20;38.70;;;;;;691852;28;1326;-87
2022/06/15 00:20:19;;;;;;;;;;;27.40;39.30;;;;;;697292;28;1405;-86
2022/06/15 00:20:40;;;;;;;;;;;27.20;38.90;;;;;;699499;28;1143;-85
2022/06/15 00:21:00;;;;;;;;;;;27.20;39.30;;;;;;699725;28;1203;-88
2022/06/15 00:21:21;;;;;;;;;;;27.20;39.40;;;;;;699562;28;1331;-89
2022/06/15 00:21:42;;;;;;;;;;;27.20;39.40;;;;;;696742;28;1296;-88
2022/06/15 00:22:03;;;;;;;;;;;27.30;39.60;;;;;;697334;28;1326;-89
2022/06/15 00:22:23;;;;;;;;;;;27.20;39.40;;;;;;697355;28;1112;-88
2022/06/15 00:22:44;;;;;;;;;;;27.20;40.30;;;;;;700251;28;1142;-89
2022/06/15 00:23:04;;;;;;;;;;;27.30;40.40;;;;;;702510;28;802;-88
2022/06/15 00:23:26;;;;;;;;;;;27.30;40.10;;;;;;699589;28;1369;-87
2022/06/15 00:23:47;;;;;;;;;;;27.20;39.70;;;;;;697002;28;1290;-89
2022/06/15 00:24:07;;;;;;;;;;;27.20;39.60;;;;;;696656;28;1948;-88
2022/06/15 00:24:28;;;;;;;;;;;27.30;39.50;;;;;;697209;28;1319;-88
2022/06/15 00:24:48;;;;;;;;;;;27.30;39.30;;;;;;702358;28;1305;-85
2022/06/15 00:25:09;;;;;;;;;;;27.30;39.50;;;;;;699962;28;1258;-87
2022/06/15 00:25:30;;;;;;;;;;;27.30;39.20;;;;;;702702;28;1368;-86
2022/06/15 00:25:51;;;;;;;;;;;27.30;39.50;;;;;;702290;28;1293;-85
2022/06/15 00:26:13;;;;;;;;;;;27.30;39.70;;;;;;702746;28;1247;-86
2022/06/15 00:26:33;;;;;;;;;;;27.20;39.60;;;;;;701861;28;853;-86
2022/06/15 00:26:54;;;;;;;;;;;27.20;40.40;;;;;;696703;28;1340;-86
2022/06/15 00:27:14;;;;;;;;;;;27.30;40.50;;;;;;693978;28;1366;-86
2022/06/15 00:27:36;;;;;;;;;;;27.30;39.70;;;;;;694504;28;965;-85
2022/06/15 00:27:57;;;;;;;;;;;27.30;39.40;;;;;;700153;28;1195;-88
2022/06/15 00:28:18;;;;;;;;;;;27.30;39.30;;;;;;702162;28;1361;-88
2022/06/15 00:28:39;;;;;;;;;;;27.30;39.00;;;;;;700058;28;1318;-86
2022/06/15 00:28:59;;;;;;;;;;;27.30;39.40;;;;;;703010;28;922;-86
2022/06/15 00:29:20;;;;;;;;;;;27.30;39.20;;;;;;702346;28;1329;-86
2022/06/15 00:29:41;;;;;;;;;;;27.30;39.50;;;;;;699024;28;1275;-85
2022/06/15 00:30:02;;;;;;;;;;;27.30;40.40;;;;;;697211;28;810;-85
2022/06/15 00:30:24;;;;;;;;;;;27.30;39.60;;;;;;696978;28;1388;-87
2022/06/15 00:30:45;;;;;;;;;;;27.30;39.30;;;;;;699610;28;912;-85
2022/06/15 00:31:06;;;;;;;;;;;27.30;39.30;;;;;;702837;28;1366;-85
2022/06/15 00:31:26;;;;;;;;;;;27.30;39.00;;;;;;702986;28;1341;-87
2022/06/15 00:31:47;;;;;;;;;;;27.40;39.20;;;;;;702258;28;1108;-87
2022/06/15 00:32:07;;;;;;;;;;;27.30;39.00;;;;;;700000;28;1396;-87
2022/06/15 00:32:28;;;;;;;;;;;27.30;39.30;;;;;;699470;28;1445;-87
2022/06/15 00:32:49;;;;;;;;;;;27.30;39.10;;;;;;696461;28;1353;-89
2022/06/15 00:33:09;;;;;;;;;;;27.30;38.90;;;;;;694346;28;834;-89
2022/06/15 00:33:30;;;;;;;;;;;27.30;39.10;;;;;;697205;28;798;-89
2022/06/15 00:33:50;;;;;;;;;;;27.30;39.30;;;;;;699754;28;1142;-88
2022/06/15 00:34:11;;;;;;;;;;;27.40;39.20;;;;;;699664;28;1481;-88
2022/06/15 00:34:32;;;;;;;;;;;27.30;39.30;;;;;;699517;28;1128;-88
2022/06/15 00:34:52;;;;;;;;;;;27.40;38.70;;;;;;702203;28;1243;-86
2022/06/15 00:35:13;;;;;;;;;;;27.30;38.60;;;;;;702282;28;1293;-88
2022/06/15 00:35:34;;;;;;;;;;;27.40;40.10;;;;;;702316;28;1237;-86
2022/06/15 00:35:59;;;;;;;;;;;27.40;38.80;;;;;;699922;28;1093;-88
2022/06/15 00:36:20;;;;;;;;;;;27.30;38.50;;;;;;703225;28;822;-89
2022/06/15 00:36:40;;;;;;;;;;;27.30;39.80;;;;;;700330;28;1389;-87
2022/06/15 00:37:01;;;;;;;;;;;27.30;38.50;;;;;;696786;28;1338;-88
2022/06/15 00:37:22;;;;;;;;;;;27.40;38.80;;;;;;697649;28;1214;-87
2022/06/15 00:37:42;;;;;;;;;;;27.40;38.80;;;;;;700424;28;1246;-87
2022/06/15 00:38:03;;;;;;;;;;;27.40;38.50;;;;;;699445;28;1216;-88
2022/06/15 00:38:25;;;;;;;;;;;27.40;38.30;;;;;;698822;28;1277;-87
2022/06/15 00:38:47;;;;;;;;;;;27.40;38.40;;;;;;696725;28;1440;-87
2022/06/15 00:39:08;;;;;;;;;;;27.40;38.80;;;;;;696636;28;1307;-88
2022/06/15 00:39:29;;;;;;;;;;;27.30;38.50;;;;;;694733;28;1220;-89
2022/06/15 00:39:49;;;;;;;;;;;27.30;39.00;;;;;;697375;28;1465;-89
2022/06/15 00:40:10;;;;;;;;;;;27.40;38.60;;;;;;699423;28;1346;-89
2022/06/15 00:40:31;;;;;;;;;;;27.40;38.60;;;;;;696773;28;1223;-88
2022/06/15 00:40:51;;;;;;;;;;;27.40;38.70;;;;;;694255;28;1279;-87
2022/06/15 00:41:14;;;;;;;;;;;27.40;38.90;;;;;;696727;28;1362;-87
2022/06/15 00:41:36;;;;;;;;;;;27.40;38.50;;;;;;696666;28;1307;-88
2022/06/15 00:41:57;;;;;;;;;;;27.40;39.30;;;;;;694932;28;1126;-88
2022/06/15 00:42:19;;;;;;;;;;;27.40;38.70;;;;;;694636;28;1179;-87
2022/06/15 00:42:40;;;;;;;;;;;27.40;38.30;;;;;;695008;28;1330;-89
2022/06/15 00:43:01;;;;;;;;;;;27.40;38.50;;;;;;696730;28;1225;-87
2022/06/15 00:43:38;;;;;;;;;;;27.40;38.30;;;;;;693882;28;1247;-88
2022/06/15 00:44:01;;;;;;;;;;;27.40;38.30;;;;;;693953;28;1894;-89
2022/06/15 00:44:21;;;;;;;;;;;27.40;38.20;;;;;;696680;28;1228;-88
2022/06/15 00:44:42;;;;;;;;;;;27.40;38.20;;;;;;696713;28;1183;-88
2022/06/15 00:45:03;;;;;;;;;;;27.40;38.30;;;;;;696745;28;1234;-88
2022/06/15 00:45:23;;;;;;;;;;;27.40;38.20;;;;;;702133;28;1228;-87
2022/06/15 00:45:44;;;;;;;;;;;27.40;38.50;;;;;;702324;28;952;-88
2022/06/15 00:46:23;;;;;;;;;;;27.40;38.40;;;;;;702712;28;841;-87
2022/06/15 00:46:45;;;;;;;;;;;27.40;38.30;;;;;;705038;28;1393;-87
2022/06/15 00:47:31;;;;;;;;;;;27.40;38.40;;;;;;704713;28;1089;-88
2022/06/15 00:47:52;;;;;;;;;;;27.40;38.20;;;;;;696718;28;1417;-88
2022/06/15 00:48:12;;;;;;;;;;;27.40;38.30;;;;;;699570;28;1434;-88
2022/06/15 00:48:33;;;;;;;;;;;27.40;38.50;;;;;;700556;28;1265;-87
2022/06/15 00:48:55;;;;;;;;;;;27.40;38.50;;;;;;703276;28;814;-87
2022/06/15 00:49:27;;;;;;;;;;;27.40;38.20;;;;;;702163;28;1146;-88
2022/06/15 00:49:51;;;;;;;;;;;27.40;38.20;;;;;;699335;28;1098;-88
2022/06/15 00:50:14;;;;;;;;;;;27.40;38.20;;;;;;699498;28;838;-88
2022/06/15 00:50:36;;;;;;;;;;;27.40;38.30;;;;;;699466;28;1248;-89
2022/06/15 00:50:56;;;;;;;;;;;27.40;38.20;;;;;;696778;28;925;-88
2022/06/15 00:51:17;;;;;;;;;;;27.40;38.40;;;;;;699359;28;1199;-87
2022/06/15 00:51:39;;;;;;;;;;;27.40;38.40;;;;;;699384;28;1293;-88
2022/06/15 00:52:02;;;;;;;;;;;27.40;38.50;;;;;;702371;28;1221;-89
2022/06/15 00:52:32;;;;;;;;;;;27.40;38.70;;;;;;702922;28;1105;-86
2022/06/15 00:52:56;;;;;;;;;;;27.40;38.40;;;;;;705111;28;1487;-88
2022/06/15 00:53:16;;;;;;;;;;;27.40;38.30;;;;;;704781;28;1273;-84
2022/06/15 00:53:38;;;;;;;;;;;27.40;38.30;;;;;;699638;28;1179;-85
2022/06/15 00:53:59;;;;;;;;;;;27.40;38.20;;;;;;699679;28;1222;-85
2022/06/15 00:54:19;;;;;;;;;;;27.40;38.20;;;;;;699389;28;1100;-86
2022/06/15 00:54:42;;;;;;;;;;;27.40;38.80;;;;;;699548;28;778;-86
2022/06/15 00:55:09;;;;;;;;;;;27.40;38.40;;;;;;697527;28;1250;-85
2022/06/15 00:55:31;;;;;;;;;;;27.40;38.30;;;;;;701139;28;869;-87
2022/06/15 00:55:51;;;;;;;;;;;27.30;38.80;;;;;;701139;28;1377;-88
2022/06/15 00:56:12;;;;;;;;;;;27.30;38.40;;;;;;699347;28;1282;-87
2022/06/15 00:56:34;;;;;;;;;;;27.40;38.50;;;;;;702235;28;1198;-88
2022/06/15 00:56:55;;;;;;;;;;;27.30;38.50;;;;;;701078;28;1218;-86
2022/06/15 00:57:16;;;;;;;;;;;27.40;38.70;;;;;;699463;28;1365;-85
2022/06/15 00:57:37;;;;;;;;;;;27.30;38.20;;;;;;697160;28;1117;-88
2022/06/15 00:58:01;;;;;;;;;;;27.40;38.40;;;;;;697379;28;1246;-86
2022/06/15 00:58:22;;;;;;;;;;;27.30;38.30;;;;;;695660;28;1388;-88
2022/06/15 00:58:45;;;;;;;;;;;27.30;39.10;;;;;;697531;28;1203;-87
2022/06/15 00:59:15;;;;;;;;;;;27.30;38.30;;;;;;697956;28;1229;-88
2022/06/15 00:59:40;;;;;;;;;;;27.30;38.40;;;;;;699061;28;1188;-88
2022/06/15 01:00:04;;;;;;;;;;;27.30;38.20;;;;;;702452;28;825;-88
2022/06/15 01:00:26;;;;;;;;;;;27.30;38.40;;;;;;702105;28;1314;-88
2022/06/15 01:00:51;;;;;;;;;;;27.30;38.40;;;;;;696639;28;1224;-87
2022/06/15 01:01:12;;;;;;;;;;;27.30;38.60;;;;;;699446;28;1346;-88
2022/06/15 01:01:33;;;;;;;;;;;27.30;38.50;;;;;;698778;28;1197;-87
2022/06/15 01:01:53;;;;;;;;;;;27.30;38.40;;;;;;699477;28;830;-87
2022/06/15 01:02:14;;;;;;;;;;;27.20;39.10;;;;;;700429;28;1290;-88
2022/06/15 01:02:36;;;;;;;;;;;27.30;38.30;;;;;;702335;28;766;-87
2022/06/15 01:02:56;;;;;;;;;;;27.30;38.20;;;;;;702461;28;1405;-88
2022/06/15 01:03:17;;;;;;;;;;;27.30;38.20;;;;;;702685;28;1494;-88
2022/06/15 01:03:37;;;;;;;;;;;27.30;38.20;;;;;;707813;27;1402;-88
2022/06/15 01:03:59;;;;;;;;;;;27.30;38.80;;;;;;708033;27;1897;-87
2022/06/15 01:04:20;;;;;;;;;;;27.30;39.70;;;;;;705030;28;1321;-88
2022/06/15 01:05:00;;;;;;;;;;;27.30;38.30;;;;;;704901;28;1064;-88
2022/06/15 01:05:39;;;;;;;;;;;27.30;38.20;;;;;;701921;28;1482;-88
2022/06/15 01:06:19;;;;;;;;;;;27.30;38.20;;;;;;699498;28;1028;-88
2022/06/15 01:06:51;;;;;;;;;;;27.30;38.20;;;;;;701779;28;1031;-89
2022/06/15 01:07:14;;;;;;;;;;;27.10;38.10;;;;;;706233;27;1083;-87
2022/06/15 01:07:35;;;;;;;;;;;27.20;38.40;;;;;;704885;28;1165;-89
2022/06/15 01:07:58;;;;;;;;;;;27.30;38.80;;;;;;702291;28;1218;-88
2022/06/15 01:08:27;;;;;;;;;;;27.20;38.40;;;;;;702091;28;1361;-89
2022/06/15 01:09:02;;;;;;;;;;;27.20;38.40;;;;;;702091;28;1212;-87
2022/06/15 01:09:24;;;;;;;;;;;27.30;38.50;;;;;;703143;28;1290;-88
2022/06/15 01:10:00;;;;;;;;;;;27.20;38.30;;;;;;702198;28;1193;-87
2022/06/15 01:10:25;;;;;;;;;;;27.20;38.30;;;;;;702164;28;1309;-87
2022/06/15 01:10:52;;;;;;;;;;;27.20;38.40;;;;;;701706;28;1312;-88
2022/06/15 01:11:41;;;;;;;;;;;27.20;38.30;;;;;;698273;28;1367;-88
2022/06/15 01:12:02;;;;;;;;;;;27.20;38.20;;;;;;696728;28;1207;-87
2022/06/15 01:12:22;;;;;;;;;;;27.20;39.40;;;;;;696326;28;1395;-88
2022/06/15 01:13:06;;;;;;;;;;;27.20;38.50;;;;;;698787;28;870;-88
2022/06/15 01:13:29;;;;;;;;;;;27.20;38.50;;;;;;700309;28;1148;-87
2022/06/15 01:13:52;;;;;;;;;;;27.20;38.30;;;;;;699111;28;1345;-87
2022/06/15 01:14:16;;;;;;;;;;;27.30;38.20;;;;;;701343;28;1137;-86
2022/06/15 01:14:37;;;;;;;;;;;27.20;38.50;;;;;;702622;28;865;-85
2022/06/15 01:15:15;;;;;;;;;;;27.30;38.60;;;;;;702089;28;1119;-87
2022/06/15 01:15:48;;;;;;;;;;;27.20;38.40;;;;;;701740;28;1178;-87
2022/06/15 01:16:27;;;;;;;;;;;27.30;38.60;;;;;;697317;28;1419;-88
2022/06/15 01:17:00;;;;;;;;;;;27.20;38.60;;;;;;694327;28;1494;-87
2022/06/15 01:17:30;;;;;;;;;;;27.30;38.80;;;;;;692154;28;1305;-86
2022/06/15 01:17:51;;;;;;;;;;;27.30;38.50;;;;;;694521;28;1202;-87
2022/06/15 01:18:30;;;;;;;;;;;27.20;38.70;;;;;;697586;28;921;-86
2022/06/15 01:18:53;;;;;;;;;;;27.20;38.50;;;;;;699297;28;1195;-87
2022/06/15 01:19:29;;;;;;;;;;;27.20;38.40;;;;;;698119;28;1266;-88
2022/06/15 01:19:52;;;;;;;;;;;27.20;38.30;;;;;;699185;28;1361;-88
2022/06/15 01:20:31;;;;;;;;;;;27.20;38.30;;;;;;699185;28;1146;-89
2022/06/15 01:20:58;;;;;;;;;;;27.20;38.40;;;;;;699148;28;1198;-88
2022/06/15 01:21:35;;;;;;;;;;;27.20;38.30;;;;;;699287;28;1372;-85
2022/06/15 01:21:58;;;;;;;;;;;27.20;38.20;;;;;;699485;28;1501;-86
2022/06/15 01:22:37;;;;;;;;;;;27.20;38.50;;;;;;701641;28;1237;-87
2022/06/15 01:23:16;;;;;;;;;;;27.20;38.70;;;;;;699268;28;1359;-85
2022/06/15 01:23:42;;;;;;;;;;;27.20;38.40;;;;;;693669;28;1301;-85
2022/06/15 01:24:03;;;;;;;;;;;27.20;38.60;;;;;;693687;28;1959;-85
2022/06/15 01:24:38;;;;;;;;;;;27.20;39.60;;;;;;690850;28;1186;-86
2022/06/15 01:25:15;;;;;;;;;;;27.20;38.80;;;;;;693719;28;1252;-89
2022/06/15 01:25:36;;;;;;;;;;;27.20;38.40;;;;;;696294;28;1370;-84
2022/06/15 01:26:17;;;;;;;;;;;27.20;38.50;;;;;;696546;28;1135;-85
2022/06/15 01:26:56;;;;;;;;;;;27.20;38.70;;;;;;699253;28;1373;-85
2022/06/15 01:27:39;;;;;;;;;;;27.20;38.30;;;;;;693725;28;1098;-86
2022/06/15 01:28:09;;;;;;;;;;;27.20;38.20;;;;;;693799;28;1357;-87
2022/06/15 01:28:38;;;;;;;;;;;27.20;38.30;;;;;;692479;28;1121;-86
2022/06/15 01:29:10;;;;;;;;;;;27.20;38.30;;;;;;693753;28;1317;-89
2022/06/15 01:29:50;;;;;;;;;;;27.20;38.40;;;;;;693865;28;1230;-89
2022/06/15 01:30:22;;;;;;;;;;;27.20;38.60;;;;;;693634;28;1337;-89
2022/06/15 01:30:51;;;;;;;;;;;27.20;38.30;;;;;;693763;28;1127;-88
2022/06/15 01:31:15;;;;;;;;;;;27.20;38.40;;;;;;691175;28;1300;-86
2022/06/15 01:31:47;;;;;;;;;;;27.20;38.50;;;;;;691244;28;1366;-87
2022/06/15 01:32:11;;;;;;;;;;;27.20;38.60;;;;;;690691;28;1219;-86
2022/06/15 01:32:33;;;;;;;;;;;27.20;38.50;;;;;;692356;28;1424;-87
2022/06/15 01:32:59;;;;;;;;;;;27.10;38.40;;;;;;694002;28;1334;-86
2022/06/15 01:33:30;;;;;;;;;;;27.20;38.50;;;;;;697131;28;1206;-85
2022/06/15 01:33:58;;;;;;;;;;;27.20;38.30;;;;;;699541;28;995;-85
2022/06/15 01:34:22;;;;;;;;;;;27.20;38.60;;;;;;697566;28;1216;-85
2022/06/15 01:34:50;;;;;;;;;;;27.20;38.60;;;;;;699429;28;1642;-85
2022/06/15 01:35:27;;;;;;;;;;;27.20;38.70;;;;;;696726;28;1219;-88
2022/06/15 01:36:07;;;;;;;;;;;27.20;38.80;;;;;;697206;28;1116;-88
2022/06/15 01:36:39;;;;;;;;;;;27.20;39.00;;;;;;696830;28;1307;-86
2022/06/15 01:37:18;;;;;;;;;;;27.20;39.30;;;;;;697960;28;1271;-89
2022/06/15 01:37:42;;;;;;;;;;;27.20;39.50;;;;;;700465;28;833;-87
2022/06/15 01:38:26;;;;;;;;;;;27.20;39.20;;;;;;699411;28;1634;-86
2022/06/15 01:38:46;;;;;;;;;;;27.20;39.00;;;;;;697557;28;1318;-88
2022/06/15 01:39:10;;;;;;;;;;;27.20;39.40;;;;;;696991;28;1131;-87
2022/06/15 01:39:30;;;;;;;;;;;27.20;39.00;;;;;;697146;28;1089;-89
2022/06/15 01:39:57;;;;;;;;;;;27.20;39.00;;;;;;698251;28;1263;-88
2022/06/15 01:40:18;;;;;;;;;;;27.20;38.80;;;;;;699925;28;1124;-88
2022/06/15 01:40:41;;;;;;;;;;;27.20;39.60;;;;;;701426;28;1304;-89
2022/06/15 01:41:27;;;;;;;;;;;27.20;38.90;;;;;;700036;28;1216;-88
2022/06/15 01:41:48;;;;;;;;;;;27.20;38.80;;;;;;695498;28;1135;-88
2022/06/15 01:42:11;;;;;;;;;;;27.20;38.90;;;;;;697101;28;1179;-87
2022/06/15 01:42:35;;;;;;;;;;;27.20;38.80;;;;;;696318;28;1195;-88
2022/06/15 01:43:22;;;;;;;;;;;27.20;39.20;;;;;;696197;28;1298;-89
2022/06/15 01:44:10;;;;;;;;;;;27.30;38.90;;;;;;695759;28;1225;-88
2022/06/15 01:44:37;;;;;;;;;;;27.20;38.70;;;;;;699233;28;1168;-87
2022/06/15 01:44:59;;;;;;;;;;;27.20;38.80;;;;;;699882;28;1366;-87
2022/06/15 01:45:21;;;;;;;;;;;27.20;38.60;;;;;;699898;28;1250;-87
2022/06/15 01:45:43;;;;;;;;;;;27.20;39.10;;;;;;699909;28;1211;-86
2022/06/15 01:46:04;;;;;;;;;;;27.20;38.70;;;;;;699952;28;1067;-88
2022/06/15 01:46:25;;;;;;;;;;;27.20;38.80;;;;;;699927;28;1282;-87
2022/06/15 01:46:47;;;;;;;;;;;27.20;38.90;;;;;;698825;28;1155;-88
2022/06/15 01:47:11;;;;;;;;;;;27.20;38.80;;;;;;699863;28;1212;-85
2022/06/15 01:47:32;;;;;;;;;;;27.20;38.60;;;;;;697165;28;1344;-87
2022/06/15 01:47:56;;;;;;;;;;;27.20;38.60;;;;;;695916;28;1218;-88
2022/06/15 01:48:17;;;;;;;;;;;27.20;38.60;;;;;;698254;28;1093;-87
2022/06/15 01:48:39;;;;;;;;;;;27.20;38.50;;;;;;697191;28;1418;-86
2022/06/15 01:49:00;;;;;;;;;;;25.60;37.30;;;;;;698394;28;1338;-87
2022/06/15 01:49:26;;;;;;;;;;;27.20;38.90;;;;;;700507;28;1089;-87
2022/06/15 01:50:07;;;;;;;;;;;27.20;39.10;;;;;;697577;28;1216;-87
2022/06/15 01:50:32;;;;;;;;;;;27.20;38.50;;;;;;699184;28;1381;-86
2022/06/15 01:50:54;;;;;;;;;;;27.30;38.70;;;;;;696598;28;1342;-87
2022/06/15 01:51:18;;;;;;;;;;;27.20;38.70;;;;;;698367;28;814;-86
2022/06/15 01:51:40;;;;;;;;;;;27.20;38.50;;;;;;700939;28;877;-87
2022/06/15 01:52:03;;;;;;;;;;;27.30;38.70;;;;;;699365;28;1207;-86
2022/06/15 01:52:25;;;;;;;;;;;27.30;38.30;;;;;;701368;28;1140;-87
2022/06/15 01:52:48;;;;;;;;;;;27.20;38.30;;;;;;701124;28;1359;-87
2022/06/15 01:53:13;;;;;;;;;;;27.30;38.80;;;;;;702284;28;1205;-89
2022/06/15 01:53:39;;;;;;;;;;;27.20;38.80;;;;;;702263;28;1225;-87
2022/06/15 01:54:10;;;;;;;;;;;27.30;38.50;;;;;;702535;28;1114;-88
2022/06/15 01:54:30;;;;;;;;;;;27.30;38.70;;;;;;702392;28;1114;-87
2022/06/15 01:54:53;;;;;;;;;;;27.20;38.80;;;;;;699471;28;1198;-87
2022/06/15 01:55:20;;;;;;;;;;;27.30;38.70;;;;;;702329;28;1306;-87
2022/06/15 01:55:49;;;;;;;;;;;27.30;38.40;;;;;;702422;28;1218;-86
2022/06/15 01:56:19;;;;;;;;;;;27.30;38.60;;;;;;699890;28;1130;-87
2022/06/15 01:56:43;;;;;;;;;;;27.30;38.70;;;;;;702168;28;1361;-88
2022/06/15 01:57:05;;;;;;;;;;;27.30;38.40;;;;;;701173;28;1155;-87
2022/06/15 01:57:28;;;;;;;;;;;27.30;38.40;;;;;;700068;28;1267;-87
2022/06/15 01:57:50;;;;;;;;;;;27.30;38.60;;;;;;702082;28;1143;-86
2022/06/15 01:58:15;;;;;;;;;;;27.20;38.30;;;;;;696616;28;1387;-88
2022/06/15 01:58:37;;;;;;;;;;;27.20;38.10;;;;;;701652;28;1270;-87
2022/06/15 01:59:00;;;;;;;;;;;27.30;38.30;;;;;;697804;28;1420;-87
2022/06/15 01:59:24;;;;;;;;;;;27.30;39.00;;;;;;699494;28;1100;-87
2022/06/15 02:00:02;;;;;;;;;;;27.20;38.40;;;;;;696974;28;1292;-87
2022/06/15 02:00:23;;;;;;;;;;;27.30;38.30;;;;;;699398;28;1195;-87
2022/06/15 02:00:47;;;;;;;;;;;27.30;38.30;;;;;;700148;28;1281;-87
2022/06/15 02:01:08;;;;;;;;;;;27.30;38.70;;;;;;699394;28;1171;-87
2022/06/15 02:01:40;;;;;;;;;;;27.30;38.50;;;;;;696617;28;1340;-86
2022/06/15 02:02:09;;;;;;;;;;;27.30;38.70;;;;;;693811;28;1160;-88
2022/06/15 02:02:42;;;;;;;;;;;27.30;38.80;;;;;;696955;28;1172;-88
2022/06/15 02:03:08;;;;;;;;;;;27.30;38.70;;;;;;701237;28;1344;-87
2022/06/15 02:03:34;;;;;;;;;;;27.30;38.70;;;;;;699278;28;1253;-86
2022/06/15 02:04:00;;;;;;;;;;;27.30;38.90;;;;;;699425;28;1382;-87
2022/06/15 02:04:24;;;;;;;;;;;27.30;38.50;;;;;;700594;28;1247;-88
2022/06/15 02:04:50;;;;;;;;;;;27.30;38.70;;;;;;702152;28;841;-87
2022/06/15 02:05:25;;;;;;;;;;;27.30;38.70;;;;;;702050;28;1394;-86
2022/06/15 02:06:09;;;;;;;;;;;27.30;38.70;;;;;;699370;28;1360;-87
2022/06/15 02:06:38;;;;;;;;;;;27.30;38.20;;;;;;696498;28;1144;-88
2022/06/15 02:07:05;;;;;;;;;;;27.30;38.50;;;;;;697381;28;1340;-88
2022/06/15 02:07:38;;;;;;;;;;;27.30;38.30;;;;;;699230;28;1274;-86
2022/06/15 02:08:09;;;;;;;;;;;27.20;38.50;;;;;;702001;28;1365;-87
2022/06/15 02:08:38;;;;;;;;;;;27.20;38.20;;;;;;699385;28;1462;-87
2022/06/15 02:08:59;;;;;;;;;;;27.20;38.20;;;;;;696439;28;1314;-87
2022/06/15 02:09:35;;;;;;;;;;;27.20;38.40;;;;;;697469;28;1202;-87
2022/06/15 02:10:00;;;;;;;;;;;27.20;38.30;;;;;;699246;28;1329;-87
2022/06/15 02:10:29;;;;;;;;;;;27.20;38.30;;;;;;697618;28;1219;-87
2022/06/15 02:11:03;;;;;;;;;;;27.20;38.30;;;;;;700449;28;925;-87
2022/06/15 02:11:30;;;;;;;;;;;27.20;38.20;;;;;;699160;28;1351;-87
2022/06/15 02:11:51;;;;;;;;;;;27.10;38.30;;;;;;697255;28;1092;-87
2022/06/15 02:12:13;;;;;;;;;;;27.20;38.50;;;;;;694970;28;1376;-87
2022/06/15 02:12:37;;;;;;;;;;;27.20;39.60;;;;;;693687;28;1152;-87
2022/06/15 02:12:58;;;;;;;;;;;27.10;38.80;;;;;;693696;28;1360;-88
2022/06/15 02:13:21;;;;;;;;;;;27.20;38.90;;;;;;691159;28;1344;-87
2022/06/15 02:13:47;;;;;;;;;;;27.20;38.80;;;;;;690842;28;1324;-87
2022/06/15 02:14:13;;;;;;;;;;;27.20;38.80;;;;;;690278;28;1362;-88
2022/06/15 02:14:40;;;;;;;;;;;27.20;38.70;;;;;;690896;28;1362;-87
2022/06/15 02:15:02;;;;;;;;;;;27.20;38.50;;;;;;694042;28;1473;-87
2022/06/15 02:15:27;;;;;;;;;;;27.20;38.70;;;;;;696550;28;857;-88
2022/06/15 02:15:49;;;;;;;;;;;27.20;38.70;;;;;;699096;28;1331;-87
2022/06/15 02:16:12;;;;;;;;;;;27.20;38.50;;;;;;699293;28;1124;-88
2022/06/15 02:16:34;;;;;;;;;;;27.20;38.60;;;;;;699283;28;1265;-87
2022/06/15 02:17:21;;;;;;;;;;;27.20;38.60;;;;;;697399;28;1295;-87
2022/06/15 02:17:44;;;;;;;;;;;27.20;38.50;;;;;;693224;28;1330;-88
2022/06/15 02:18:07;;;;;;;;;;;27.10;38.30;;;;;;692762;28;1379;-88
2022/06/15 02:18:28;;;;;;;;;;;27.20;38.20;;;;;;692982;28;1251;-87
2022/06/15 02:18:50;;;;;;;;;;;27.10;38.10;;;;;;690856;28;1358;-88
2022/06/15 02:19:13;;;;;;;;;;;27.10;38.30;;;;;;690888;28;1214;-87
2022/06/15 02:19:43;;;;;;;;;;;27.10;38.60;;;;;;693788;28;1101;-87
2022/06/15 02:20:07;;;;;;;;;;;27.10;38.50;;;;;;693758;28;1375;-87
2022/06/15 02:20:30;;;;;;;;;;;27.10;38.60;;;;;;696332;28;1376;-87
2022/06/15 02:20:54;;;;;;;;;;;27.10;38.50;;;;;;699234;28;771;-88
2022/06/15 02:21:17;;;;;;;;;;;27.10;38.50;;;;;;699137;28;1305;-87
2022/06/15 02:21:39;;;;;;;;;;;27.10;38.60;;;;;;696325;28;1247;-87
2022/06/15 02:22:06;;;;;;;;;;;27.10;38.50;;;;;;693670;28;1270;-87
2022/06/15 02:22:28;;;;;;;;;;;27.10;38.50;;;;;;696123;28;1168;-87
2022/06/15 02:22:51;;;;;;;;;;;27.10;38.80;;;;;;693571;28;953;-87
2022/06/15 02:23:13;;;;;;;;;;;27.10;38.60;;;;;;693567;28;1356;-87
2022/06/15 02:23:35;;;;;;;;;;;27.10;38.60;;;;;;695684;28;1281;-87
2022/06/15 02:23:57;;;;;;;;;;;27.10;38.50;;;;;;696034;28;1263;-87
2022/06/15 02:24:19;;;;;;;;;;;27.10;38.50;;;;;;692126;28;1345;-87
2022/06/15 02:24:41;;;;;;;;;;;27.10;38.90;;;;;;694902;28;1243;-87
2022/06/15 02:25:04;;;;;;;;;;;27.10;39.10;;;;;;693658;28;1210;-86
2022/06/15 02:25:27;;;;;;;;;;;27.10;38.50;;;;;;692503;28;1403;-85
2022/06/15 02:25:49;;;;;;;;;;;27.10;38.50;;;;;;695069;28;1280;-87
2022/06/15 02:26:11;;;;;;;;;;;27.10;38.60;;;;;;695219;28;1263;-87
2022/06/15 02:26:33;;;;;;;;;;;27.10;38.60;;;;;;692318;28;1081;-87
2022/06/15 02:26:54;;;;;;;;;;;27.10;38.60;;;;;;689674;28;1211;-87
2022/06/15 02:27:15;;;;;;;;;;;27.10;40.30;;;;;;694847;28;1376;-86
2022/06/15 02:27:37;;;;;;;;;;;27.10;38.90;;;;;;693590;28;1397;-87
2022/06/15 02:27:59;;;;;;;;;;;27.10;38.90;;;;;;691960;28;1341;-86